Time;durP1;ratioP1;P1;durP2;ratioP2;P2;SDS_P1;SDS_P2;PMS_P1;PMS_P2;Temp;Humidity;BMP_temperature;BMP_pressure;BME280_temperature;BME280_humidity;BME280_pressure;Samples;Min_cycle;Max_cycle;Signal;HPM_P1;HPM_P2
2022/07/10 00:00:10;;;;;;;21.27;2.35;;;;;;;;;;4978462;28;20046;-64
2022/07/10 00:02:37;;;;;;;17.67;2.70;;;;;;;;;;4969850;28;20097;-64
2022/07/10 00:05:03;;;;;;;10.68;2.33;;;;;;;;;;4978981;28;20043;-64
2022/07/10 00:07:30;;;;;;;15.23;2.60;;;;;;;;;;4967601;28;20038;-64
2022/07/10 00:09:56;;;;;;;8.15;1.85;;;;;;;;;;4973088;28;20510;-64
2022/07/10 00:12:22;;;;;;;11.93;2.40;;;;;;;;;;4968477;28;20070;-64
2022/07/10 00:14:48;;;;;;;10.90;1.90;;;;;;;;;;4979864;28;20080;-64
2022/07/10 00:17:15;;;;;;;10.68;2.17;;;;;;;;;;4984462;28;20808;-64
2022/07/10 00:19:41;;;;;;;12.15;2.10;;;;;;;;;;4983232;28;21937;-64
2022/07/10 00:22:07;;;;;;;10.10;1.77;;;;;;;;;;4983398;28;20042;-64
2022/07/10 00:24:33;;;;;;;11.40;1.75;;;;;;;;;;4983661;28;20038;-64
2022/07/10 00:26:59;;;;;;;12.10;1.63;;;;;;;;;;4983599;28;20439;-64
2022/07/10 00:29:26;;;;;;;8.23;2.03;;;;;;;;;;4986748;28;20066;-64
2022/07/10 00:31:52;;;;;;;10.82;2.80;;;;;;;;;;4983116;28;20056;-65
2022/07/10 00:34:18;;;;;;;14.65;2.25;;;;;;;;;;4982535;28;20042;-64
2022/07/10 00:36:44;;;;;;;14.70;2.90;;;;;;;;;;4985836;28;20095;-64
2022/07/10 00:39:11;;;;;;;8.85;2.22;;;;;;;;;;4983740;28;20051;-64
2022/07/10 00:41:37;;;;;;;10.57;2.03;;;;;;;;;;4986251;28;20045;-64
2022/07/10 00:44:03;;;;;;;14.63;2.22;;;;;;;;;;4981684;28;20386;-64
2022/07/10 00:46:30;;;;;;;8.27;1.90;;;;;;;;;;4987763;28;20038;-64
2022/07/10 00:48:56;;;;;;;8.68;2.20;;;;;;;;;;4983974;28;20069;-64
2022/07/10 00:51:25;;;;;;;14.73;2.53;;;;;;;;;;4974463;28;20061;-64
2022/07/10 00:53:51;;;;;;;16.98;2.90;;;;;;;;;;4971567;28;20053;-63
2022/07/10 00:56:19;;;;;;;8.40;1.77;;;;;;;;;;4967512;28;20054;-64
2022/07/10 00:58:47;;;;;;;11.63;2.42;;;;;;;;;;4972340;28;20046;-64
2022/07/10 01:01:13;;;;;;;12.50;2.70;;;;;;;;;;4966561;28;20081;-64
2022/07/10 01:03:39;;;;;;;19.15;2.38;;;;;;;;;;4967468;28;20439;-64
2022/07/10 01:06:05;;;;;;;12.55;2.15;;;;;;;;;;4969415;28;20096;-64
2022/07/10 01:08:33;;;;;;;12.15;2.65;;;;;;;;;;4952702;28;20073;-64
2022/07/10 01:10:59;;;;;;;11.65;1.95;;;;;;;;;;4969108;28;20153;-64
2022/07/10 01:13:25;;;;;;;10.90;1.63;;;;;;;;;;4970594;28;20454;-64
2022/07/10 01:15:52;;;;;;;8.98;1.50;;;;;;;;;;4971852;28;20060;-64
2022/07/10 01:18:19;;;;;;;8.38;1.40;;;;;;;;;;4974801;28;20086;-64
2022/07/10 01:20:45;;;;;;;7.90;1.70;;;;;;;;;;4974588;28;20058;-64
2022/07/10 01:23:11;;;;;;;13.13;1.73;;;;;;;;;;4975366;28;20136;-64
2022/07/10 01:25:37;;;;;;;10.05;1.38;;;;;;;;;;4979703;28;20050;-64
2022/07/10 01:28:03;;;;;;;6.82;1.55;;;;;;;;;;4978901;28;20495;-63
2022/07/10 01:30:29;;;;;;;10.45;1.65;;;;;;;;;;4963671;28;20138;-64
2022/07/10 01:32:56;;;;;;;9.05;1.40;;;;;;;;;;4978700;28;20199;-64
2022/07/10 01:35:22;;;;;;;9.18;1.48;;;;;;;;;;4979582;28;20042;-64
2022/07/10 01:37:49;;;;;;;8.98;1.48;;;;;;;;;;4978382;28;20754;-64
2022/07/10 01:40:15;;;;;;;11.90;2.05;;;;;;;;;;4961920;28;20362;-64
2022/07/10 01:42:41;;;;;;;9.15;1.48;;;;;;;;;;4978361;28;20177;-64
2022/07/10 01:45:08;;;;;;;11.52;1.65;;;;;;;;;;4958695;28;20043;-64
2022/07/10 01:47:34;;;;;;;11.57;1.25;;;;;;;;;;4961190;28;20125;-64
2022/07/10 01:50:00;;;;;;;12.95;1.80;;;;;;;;;;4979610;28;20103;-64
2022/07/10 01:52:26;;;;;;;5.38;1.17;;;;;;;;;;4980104;28;20047;-65
2022/07/10 01:54:53;;;;;;;13.40;1.92;;;;;;;;;;4979994;28;20063;-64
2022/07/10 01:57:19;;;;;;;14.10;1.65;;;;;;;;;;4978941;28;20038;-64
2022/07/10 01:59:45;;;;;;;5.40;1.42;;;;;;;;;;4979180;28;20042;-65
2022/07/10 02:02:11;;;;;;;7.03;1.50;;;;;;;;;;4959476;28;20046;-64
2022/07/10 02:04:43;;;;;;;8.75;1.63;;;;;;;;;;4957315;28;20108;-64
2022/07/10 02:07:11;;;;;;;13.88;2.30;;;;;;;;;;4978293;28;20080;-65
2022/07/10 02:09:37;;;;;;;6.32;1.27;;;;;;;;;;4977175;28;20351;-64
2022/07/10 02:12:03;;;;;;;7.03;1.75;;;;;;;;;;4979002;28;20131;-64
2022/07/10 02:14:29;;;;;;;9.98;2.05;;;;;;;;;;4979151;28;20046;-64
2022/07/10 02:16:55;;;;;;;11.73;1.60;;;;;;;;;;4978419;28;20046;-64
2022/07/10 02:19:22;;;;;;;12.82;1.67;;;;;;;;;;4978892;28;20046;-64
2022/07/10 02:21:48;;;;;;;13.38;1.92;;;;;;;;;;4969072;28;20043;-64
2022/07/10 02:24:14;;;;;;;10.35;1.88;;;;;;;;;;4974028;28;20045;-64
2022/07/10 02:26:40;;;;;;;9.73;2.03;;;;;;;;;;4970975;28;20049;-64
2022/07/10 02:29:06;;;;;;;13.30;2.10;;;;;;;;;;4969260;28;20074;-64
2022/07/10 02:31:34;;;;;;;10.10;1.58;;;;;;;;;;4974363;28;20388;-64
2022/07/10 02:34:01;;;;;;;12.52;2.85;;;;;;;;;;4972354;28;20047;-64
2022/07/10 02:36:27;;;;;;;12.27;2.28;;;;;;;;;;4975006;28;20126;-64
2022/07/10 02:38:53;;;;;;;9.77;2.13;;;;;;;;;;4969662;28;20039;-64
2022/07/10 02:41:19;;;;;;;8.98;1.77;;;;;;;;;;4972557;28;20038;-64
2022/07/10 02:43:45;;;;;;;10.63;1.90;;;;;;;;;;4957638;28;20060;-64
2022/07/10 02:46:11;;;;;;;13.95;1.90;;;;;;;;;;4970115;28;20111;-64
2022/07/10 02:48:38;;;;;;;8.48;1.60;;;;;;;;;;4968103;28;20055;-64
2022/07/10 02:51:04;;;;;;;11.02;1.63;;;;;;;;;;4962554;28;20065;-64
2022/07/10 02:53:30;;;;;;;9.93;2.60;;;;;;;;;;4973640;28;20050;-64
2022/07/10 02:55:57;;;;;;;8.57;1.95;;;;;;;;;;4973145;28;20042;-64
2022/07/10 02:58:23;;;;;;;9.30;1.63;;;;;;;;;;4973785;28;20500;-64
2022/07/10 03:00:49;;;;;;;12.07;2.60;;;;;;;;;;4959915;28;20047;-64
2022/07/10 03:03:17;;;;;;;10.93;1.83;;;;;;;;;;4970059;28;20042;-64
2022/07/10 03:05:44;;;;;;;13.48;2.20;;;;;;;;;;4970212;28;20053;-64
2022/07/10 03:08:10;;;;;;;11.10;2.53;;;;;;;;;;4972297;28;20043;-64
2022/07/10 03:10:37;;;;;;;11.30;1.85;;;;;;;;;;4967971;28;21385;-64
2022/07/10 03:13:03;;;;;;;9.07;1.75;;;;;;;;;;4969384;28;20046;-64
2022/07/10 03:15:29;;;;;;;7.22;1.95;;;;;;;;;;4972268;28;20052;-64
2022/07/10 03:17:56;;;;;;;16.50;3.38;;;;;;;;;;4973095;28;20039;-64
2022/07/10 03:20:22;;;;;;;14.05;2.58;;;;;;;;;;4968197;28;20062;-64
2022/07/10 03:22:48;;;;;;;10.63;2.75;;;;;;;;;;4975980;28;20481;-64
2022/07/10 03:25:14;;;;;;;11.40;2.05;;;;;;;;;;4979411;28;20054;-64
2022/07/10 03:27:40;;;;;;;11.45;2.17;;;;;;;;;;4982491;28;20038;-65
2022/07/10 03:30:07;;;;;;;9.93;1.83;;;;;;;;;;4984027;28;20038;-64
2022/07/10 03:32:33;;;;;;;13.40;2.00;;;;;;;;;;4984973;28;20124;-64
2022/07/10 03:34:59;;;;;;;13.55;2.47;;;;;;;;;;4986158;28;20165;-64
2022/07/10 03:37:26;;;;;;;13.68;1.95;;;;;;;;;;4969535;28;20050;-64
2022/07/10 03:39:52;;;;;;;11.43;2.15;;;;;;;;;;4982637;28;20477;-64
2022/07/10 03:42:18;;;;;;;9.82;2.25;;;;;;;;;;4983946;28;20057;-64
2022/07/10 03:44:44;;;;;;;11.48;2.85;;;;;;;;;;4968574;28;20143;-65
2022/07/10 03:47:11;;;;;;;19.20;3.20;;;;;;;;;;4983584;28;20359;-64
2022/07/10 03:49:38;;;;;;;10.50;2.75;;;;;;;;;;4987230;28;20103;-64
2022/07/10 03:52:05;;;;;;;11.68;2.47;;;;;;;;;;4984702;28;20584;-64
2022/07/10 03:54:31;;;;;;;15.73;2.00;;;;;;;;;;4976493;28;20047;-64
2022/07/10 03:59:43;;;;;;;14.30;3.05;;;;;;;;;;4960246;28;20058;-64
2022/07/10 04:02:09;;;;;;;13.77;2.90;;;;;;;;;;4968592;28;20050;-64
2022/07/10 04:04:35;;;;;;;14.73;2.88;;;;;;;;;;4967430;28;20050;-64
2022/07/10 04:07:03;;;;;;;8.80;2.40;;;;;;;;;;4968062;28;20039;-64
2022/07/10 04:09:30;;;;;;;11.38;2.63;;;;;;;;;;4972446;28;20456;-64
2022/07/10 04:11:56;;;;;;;10.98;2.50;;;;;;;;;;4940319;28;20034;-64
2022/07/10 04:14:22;;;;;;;11.57;2.97;;;;;;;;;;4969684;28;20115;-64
2022/07/10 04:16:48;;;;;;;17.05;2.70;;;;;;;;;;4969201;28;20074;-64
2022/07/10 04:19:15;;;;;;;15.80;3.92;;;;;;;;;;4966954;28;20055;-63
2022/07/10 04:21:41;;;;;;;10.63;3.42;;;;;;;;;;4956218;28;20061;-62
2022/07/10 04:24:07;;;;;;;11.77;3.10;;;;;;;;;;4972053;28;20043;-63
2022/07/10 04:26:34;;;;;;;9.13;2.30;;;;;;;;;;4951583;28;20042;-64
2022/07/10 04:29:00;;;;;;;12.77;3.15;;;;;;;;;;4973195;28;20053;-64
2022/07/10 04:31:27;;;;;;;19.70;3.00;;;;;;;;;;4980660;28;20042;-64
2022/07/10 04:33:53;;;;;;;11.32;2.72;;;;;;;;;;4980514;28;20053;-64
2022/07/10 04:36:19;;;;;;;10.85;2.53;;;;;;;;;;4981946;28;20057;-64
2022/07/10 04:38:45;;;;;;;13.98;3.42;;;;;;;;;;4976766;28;20050;-64
2022/07/10 04:41:11;;;;;;;15.15;2.85;;;;;;;;;;4978010;28;20119;-64
2022/07/10 04:43:37;;;;;;;13.60;2.35;;;;;;;;;;4978691;28;20057;-64
2022/07/10 04:46:04;;;;;;;11.60;3.08;;;;;;;;;;4974963;28;22375;-64
2022/07/10 04:48:30;;;;;;;14.98;2.40;;;;;;;;;;4979182;28;20065;-64
2022/07/10 04:50:56;;;;;;;9.52;2.42;;;;;;;;;;4976358;28;20079;-64
2022/07/10 04:53:22;;;;;;;14.27;3.33;;;;;;;;;;4972445;28;20054;-64
2022/07/10 04:55:48;;;;;;;12.73;2.78;;;;;;;;;;4965640;28;20026;-64
2022/07/10 04:58:15;;;;;;;10.38;2.50;;;;;;;;;;4965533;28;20050;-64
2022/07/10 05:00:41;;;;;;;8.73;2.10;;;;;;;;;;4973454;28;20405;-64
2022/07/10 05:03:07;;;;;;;9.90;3.08;;;;;;;;;;4976237;28;20054;-64
2022/07/10 05:05:33;;;;;;;15.82;2.78;;;;;;;;;;4961458;28;20739;-64
2022/07/10 05:08:00;;;;;;;8.63;2.28;;;;;;;;;;4956631;28;20042;-65
2022/07/10 05:10:27;;;;;;;12.63;2.15;;;;;;;;;;4975880;28;20481;-64
2022/07/10 05:12:53;;;;;;;10.30;2.08;;;;;;;;;;4973440;28;20038;-64
2022/07/10 05:15:19;;;;;;;13.25;2.38;;;;;;;;;;4966984;28;20269;-64
2022/07/10 05:17:45;;;;;;;11.93;2.38;;;;;;;;;;4970470;28;20062;-64
2022/07/10 05:20:11;;;;;;;9.77;2.15;;;;;;;;;;4973339;28;20088;-64
2022/07/10 05:22:38;;;;;;;11.43;2.42;;;;;;;;;;4960375;28;20037;-64
2022/07/10 05:25:04;;;;;;;11.15;2.38;;;;;;;;;;4976111;28;20354;-64
2022/07/10 05:27:30;;;;;;;10.77;2.72;;;;;;;;;;4957396;28;20042;-64
2022/07/10 05:29:56;;;;;;;9.38;2.15;;;;;;;;;;4974027;28;20042;-65
2022/07/10 05:32:25;;;;;;;12.88;2.63;;;;;;;;;;4972016;28;20050;-64
2022/07/10 05:34:51;;;;;;;12.68;3.00;;;;;;;;;;4969373;28;20498;-64
2022/07/10 05:37:17;;;;;;;16.35;2.70;;;;;;;;;;4971700;28;20371;-64
2022/07/10 05:39:44;;;;;;;11.60;2.65;;;;;;;;;;4970369;28;21493;-64
2022/07/10 05:42:11;;;;;;;13.85;3.20;;;;;;;;;;4973107;28;21728;-65
2022/07/10 05:44:37;;;;;;;10.85;2.22;;;;;;;;;;4976472;28;20062;-65
2022/07/10 05:47:03;;;;;;;14.75;2.72;;;;;;;;;;4975416;28;20042;-64
2022/07/10 05:49:31;;;;;;;10.93;2.40;;;;;;;;;;4976681;28;20042;-65
2022/07/10 05:51:58;;;;;;;9.20;2.50;;;;;;;;;;4959875;28;20075;-65
2022/07/10 05:54:24;;;;;;;10.20;2.42;;;;;;;;;;4975349;28;20168;-64
2022/07/10 05:56:51;;;;;;;15.02;2.58;;;;;;;;;;4975808;28;20486;-64
2022/07/10 05:59:17;;;;;;;8.63;2.17;;;;;;;;;;4975433;28;20057;-65
2022/07/10 06:01:43;;;;;;;15.63;2.33;;;;;;;;;;4968587;28;20437;-64
2022/07/10 06:04:09;;;;;;;9.05;2.25;;;;;;;;;;4972180;28;20088;-64
2022/07/10 06:06:35;;;;;;;6.43;1.50;;;;;;;;;;4970091;28;20031;-64
2022/07/10 06:09:01;;;;;;;10.43;1.77;;;;;;;;;;4975696;28;21719;-64
2022/07/10 06:11:28;;;;;;;7.00;2.17;;;;;;;;;;4975664;28;20053;-63
2022/07/10 06:13:54;;;;;;;11.45;2.13;;;;;;;;;;4975249;28;20046;-64
2022/07/10 06:16:20;;;;;;;12.35;2.25;;;;;;;;;;4980455;28;20039;-64
2022/07/10 06:18:46;;;;;;;10.48;1.90;;;;;;;;;;4977811;28;20060;-64
2022/07/10 06:21:13;;;;;;;7.22;1.67;;;;;;;;;;4977246;28;20103;-64
2022/07/10 06:23:39;;;;;;;6.82;1.80;;;;;;;;;;4978847;28;20502;-65
2022/07/10 06:26:05;;;;;;;9.15;1.45;;;;;;;;;;4979321;28;20121;-64
2022/07/10 06:28:31;;;;;;;5.88;1.42;;;;;;;;;;4961173;28;20042;-64
2022/07/10 06:30:57;;;;;;;6.35;1.55;;;;;;;;;;4980363;28;20039;-64
2022/07/10 06:33:23;;;;;;;7.00;1.70;;;;;;;;;;4980067;28;20054;-65
2022/07/10 06:35:50;;;;;;;9.85;1.70;;;;;;;;;;4980400;28;20146;-64
2022/07/10 06:38:16;;;;;;;11.07;1.63;;;;;;;;;;4978161;28;20178;-64
2022/07/10 06:40:43;;;;;;;12.38;2.20;;;;;;;;;;4960106;28;20068;-64
2022/07/10 06:43:09;;;;;;;7.47;1.58;;;;;;;;;;4969355;28;20057;-64
2022/07/10 06:45:35;;;;;;;8.32;2.20;;;;;;;;;;4981312;28;20154;-64
2022/07/10 06:48:01;;;;;;;9.07;1.98;;;;;;;;;;4978279;28;20117;-65
2022/07/10 06:50:30;;;;;;;7.22;1.58;;;;;;;;;;4974328;28;20046;-69
2022/07/10 06:52:57;;;;;;;5.40;1.55;;;;;;;;;;4958711;28;20054;-64
2022/07/10 06:55:23;;;;;;;7.78;1.90;;;;;;;;;;4977539;28;20089;-65
2022/07/10 06:57:50;;;;;;;7.10;1.25;;;;;;;;;;4976015;28;20041;-65
2022/07/10 07:00:16;;;;;;;12.80;2.08;;;;;;;;;;4976202;28;20063;-65
2022/07/10 07:02:42;;;;;;;3.65;1.27;;;;;;;;;;4974801;28;20052;-65
2022/07/10 07:05:09;;;;;;;3.83;0.98;;;;;;;;;;4971782;28;20125;-64
2022/07/10 07:07:35;;;;;;;6.97;1.20;;;;;;;;;;4966979;28;20045;-64
2022/07/10 07:10:01;;;;;;;4.03;1.00;;;;;;;;;;4973396;28;20057;-65
2022/07/10 07:12:28;;;;;;;4.82;1.08;;;;;;;;;;4974165;28;20938;-64
2022/07/10 07:14:54;;;;;;;6.65;1.35;;;;;;;;;;4974494;28;20038;-64
2022/07/10 07:17:22;;;;;;;4.82;1.40;;;;;;;;;;4978872;28;21020;-65
2022/07/10 07:25:19;;;;;;;7.53;1.65;;;;;;;;;;4980297;28;20394;-64
2022/07/10 07:27:45;;;;;;;8.35;2.10;;;;;;;;;;4979107;28;20042;-64
2022/07/10 07:30:14;;;;;;;13.25;1.67;;;;;;;;;;4962282;28;20046;-65
2022/07/10 07:32:41;;;;;;;10.63;1.92;;;;;;;;;;4991074;28;20060;-64
2022/07/10 07:35:07;;;;;;;9.38;2.15;;;;;;;;;;4989208;28;20122;-65
2022/07/10 07:37:36;;;;;;;11.30;2.28;;;;;;;;;;4985846;28;20062;-65
2022/07/10 07:40:02;;;;;;;6.85;2.40;;;;;;;;;;4987181;28;20035;-64
2022/07/10 07:42:29;;;;;;;9.65;2.13;;;;;;;;;;4987325;28;20050;-64
2022/07/10 07:44:55;;;;;;;13.32;2.75;;;;;;;;;;4992903;28;20057;-65
2022/07/10 07:47:21;;;;;;;9.90;2.03;;;;;;;;;;4990463;28;20082;-64
2022/07/10 07:49:47;;;;;;;12.60;2.30;;;;;;;;;;4988970;28;20047;-65
2022/07/10 07:52:14;;;;;;;11.48;2.33;;;;;;;;;;4983409;28;20046;-64
2022/07/10 07:54:40;;;;;;;10.13;1.73;;;;;;;;;;4983078;28;20112;-64
2022/07/10 07:57:06;;;;;;;8.23;1.70;;;;;;;;;;4985935;28;20145;-65
2022/07/10 07:59:32;;;;;;;6.68;1.83;;;;;;;;;;4984174;28;20122;-64
2022/07/10 08:01:59;;;;;;;7.90;1.90;;;;;;;;;;4966555;28;20137;-65
2022/07/10 08:04:25;;;;;;;9.07;1.67;;;;;;;;;;4983168;28;20050;-65
2022/07/10 08:06:52;;;;;;;9.52;1.70;;;;;;;;;;4980953;28;20046;-64
2022/07/10 08:09:18;;;;;;;8.85;2.17;;;;;;;;;;4986108;28;20402;-64
2022/07/10 08:11:45;;;;;;;8.30;1.90;;;;;;;;;;4984012;28;20058;-65
2022/07/10 08:14:11;;;;;;;7.93;1.90;;;;;;;;;;4985327;28;20048;-64
2022/07/10 08:16:38;;;;;;;8.73;2.10;;;;;;;;;;4986390;28;20123;-64
2022/07/10 08:19:04;;;;;;;9.07;2.08;;;;;;;;;;4986719;28;20057;-64
2022/07/10 08:21:30;;;;;;;7.57;2.25;;;;;;;;;;4983713;28;20180;-65
2022/07/10 08:23:56;;;;;;;11.65;2.10;;;;;;;;;;4984366;28;20047;-64
2022/07/10 08:26:22;;;;;;;8.75;1.83;;;;;;;;;;4986507;28;20429;-64
2022/07/10 08:28:49;;;;;;;6.47;1.92;;;;;;;;;;4994039;28;20046;-64
2022/07/10 08:31:15;;;;;;;6.88;1.40;;;;;;;;;;4991361;28;20103;-64
2022/07/10 08:33:41;;;;;;;12.20;1.80;;;;;;;;;;4988456;28;20390;-64
2022/07/10 08:36:08;;;;;;;7.78;2.25;;;;;;;;;;4989681;28;20149;-64
2022/07/10 08:38:34;;;;;;;9.65;2.28;;;;;;;;;;4986573;28;20043;-64
2022/07/10 08:41:02;;;;;;;8.32;2.00;;;;;;;;;;4990000;28;20044;-64
2022/07/10 08:43:28;;;;;;;6.22;1.95;;;;;;;;;;4990552;28;20482;-64
2022/07/10 08:45:55;;;;;;;6.30;2.10;;;;;;;;;;4970682;28;20043;-64
2022/07/10 08:48:23;;;;;;;7.78;1.40;;;;;;;;;;4987209;28;20107;-64
2022/07/10 08:50:52;;;;;;;7.20;1.70;;;;;;;;;;4985642;28;20168;-64
2022/07/10 08:53:22;;;;;;;8.95;2.17;;;;;;;;;;4983887;28;20129;-64
2022/07/10 08:55:48;;;;;;;9.80;2.20;;;;;;;;;;4980319;28;20038;-64
2022/07/10 08:58:15;;;;;;;6.25;1.92;;;;;;;;;;4982755;28;20038;-64
2022/07/10 09:00:41;;;;;;;10.82;1.70;;;;;;;;;;4969399;28;20157;-65
2022/07/10 09:03:08;;;;;;;14.32;2.22;;;;;;;;;;4980538;28;20050;-64
2022/07/10 09:05:35;;;;;;;12.88;2.20;;;;;;;;;;4980606;28;20180;-64
2022/07/10 09:08:01;;;;;;;10.77;2.35;;;;;;;;;;4957576;28;20054;-64
2022/07/10 09:10:29;;;;;;;11.27;2.40;;;;;;;;;;4981781;28;20035;-65
2022/07/10 09:12:56;;;;;;;8.65;2.15;;;;;;;;;;4956345;28;20104;-64
2022/07/10 09:15:23;;;;;;;9.13;1.88;;;;;;;;;;4977662;28;20110;-65
2022/07/10 09:17:50;;;;;;;11.50;2.15;;;;;;;;;;4973505;28;20046;-64
2022/07/10 09:20:29;;;;;;;10.05;2.20;;;;;;;;;;4977658;28;20061;-64
2022/07/10 09:22:56;;;;;;;6.35;1.80;;;;;;;;;;4973852;28;21055;-64
2022/07/10 09:25:22;;;;;;;11.02;2.15;;;;;;;;;;4959214;28;20069;-64
2022/07/10 09:27:53;;;;;;;10.85;2.38;;;;;;;;;;4977178;28;20050;-64
2022/07/10 09:30:34;;;;;;;9.07;2.05;;;;;;;;;;4978148;28;20061;-64
2022/07/10 09:33:18;;;;;;;5.20;1.98;;;;;;;;;;4960067;28;20050;-64
2022/07/10 09:36:05;;;;;;;8.20;1.95;;;;;;;;;;4980665;28;20062;-64
2022/07/10 09:38:44;;;;;;;8.45;1.73;;;;;;;;;;4957733;28;20054;-64
2022/07/10 09:41:14;;;;;;;7.45;2.20;;;;;;;;;;4977255;28;20092;-64
2022/07/10 09:43:48;;;;;;;8.40;1.58;;;;;;;;;;4978051;28;20077;-64
2022/07/10 09:46:15;;;;;;;7.90;1.58;;;;;;;;;;4947233;28;20470;-71
2022/07/10 09:48:41;;;;;;;10.55;2.40;;;;;;;;;;4962695;28;20054;-64
2022/07/10 09:51:09;;;;;;;7.38;1.80;;;;;;;;;;4979298;28;20058;-64
2022/07/10 09:53:40;;;;;;;9.13;1.88;;;;;;;;;;4985330;28;20042;-64
2022/07/10 09:56:08;;;;;;;13.10;2.08;;;;;;;;;;4982907;28;20082;-64
2022/07/10 09:58:36;;;;;;;9.93;2.20;;;;;;;;;;4983370;28;20125;-64
2022/07/10 10:01:04;;;;;;;6.78;1.67;;;;;;;;;;4982720;28;20127;-64
2022/07/10 10:03:34;;;;;;;6.30;1.48;;;;;;;;;;4981802;28;21332;-64
2022/07/10 10:06:07;;;;;;;7.85;2.00;;;;;;;;;;4990419;28;20043;-63
2022/07/10 10:08:44;;;;;;;7.28;2.00;;;;;;;;;;4982321;28;20039;-63
2022/07/10 10:11:15;;;;;;;7.63;2.10;;;;;;;;;;4983765;28;20080;-64
2022/07/10 10:13:42;;;;;;;7.63;1.95;;;;;;;;;;4980552;28;20061;-64
2022/07/10 10:16:09;;;;;;;5.57;1.40;;;;;;;;;;4981055;28;20082;-63
2022/07/10 10:18:36;;;;;;;8.13;2.55;;;;;;;;;;4985639;28;20102;-64
2022/07/10 10:21:06;;;;;;;7.82;1.67;;;;;;;;;;4987703;28;20064;-64
2022/07/10 10:23:33;;;;;;;9.85;1.65;;;;;;;;;;4985056;28;20050;-64
2022/07/10 10:25:59;;;;;;;8.98;1.65;;;;;;;;;;4984420;28;20046;-63
2022/07/10 10:28:26;;;;;;;16.58;2.38;;;;;;;;;;4965013;28;20057;-63
2022/07/10 10:30:53;;;;;;;11.70;2.55;;;;;;;;;;4983116;28;20038;-64
2022/07/10 10:33:32;;;;;;;12.27;2.00;;;;;;;;;;4984918;28;20042;-63
2022/07/10 10:35:59;;;;;;;9.98;2.03;;;;;;;;;;4987744;28;20666;-64
2022/07/10 10:38:25;;;;;;;7.57;1.80;;;;;;;;;;4986467;28;20043;-63
2022/07/10 10:40:52;;;;;;;9.52;1.88;;;;;;;;;;4982009;28;20058;-63
2022/07/10 10:43:24;;;;;;;10.18;2.10;;;;;;;;;;4985161;28;20061;-64
2022/07/10 10:45:52;;;;;;;10.93;2.25;;;;;;;;;;4982649;28;20053;-63
2022/07/10 10:48:20;;;;;;;11.15;2.13;;;;;;;;;;4982429;28;20084;-64
2022/07/10 10:50:47;;;;;;;11.38;2.10;;;;;;;;;;4983889;28;20107;-64
2022/07/10 10:53:15;;;;;;;7.07;2.45;;;;;;;;;;4984650;28;20061;-63
2022/07/10 10:56:01;;;;;;;6.15;1.58;;;;;;;;;;4986642;28;20133;-64
2022/07/10 10:58:28;;;;;;;7.47;1.75;;;;;;;;;;4983378;28;20146;-64
2022/07/10 11:01:24;;;;;;;9.82;1.90;;;;;;;;;;4966710;28;20038;-63
2022/07/10 11:04:14;;;;;;;10.05;2.03;;;;;;;;;;4966619;28;20096;-64
2022/07/10 11:06:41;;;;;;;5.65;1.40;;;;;;;;;;4985407;28;20485;-64
2022/07/10 11:09:24;;;;;;;6.45;1.73;;;;;;;;;;4984195;28;20057;-63
2022/07/10 11:11:58;;;;;;;7.55;1.50;;;;;;;;;;4979341;28;20061;-63
2022/07/10 11:14:28;;;;;;;8.23;1.83;;;;;;;;;;4965478;28;20066;-64
2022/07/10 11:16:54;;;;;;;5.88;1.35;;;;;;;;;;4978153;28;20042;-64
2022/07/10 11:19:22;;;;;;;9.27;1.98;;;;;;;;;;4980576;28;20054;-64
2022/07/10 11:21:54;;;;;;;3.67;1.25;;;;;;;;;;4968047;28;20057;-64
2022/07/10 11:24:47;;;;;;;7.70;1.80;;;;;;;;;;4986913;28;20457;-64
2022/07/10 11:27:30;;;;;;;8.77;1.50;;;;;;;;;;4987443;28;20046;-64
2022/07/10 11:29:57;;;;;;;5.85;1.40;;;;;;;;;;4979751;28;20042;-64
2022/07/10 11:32:23;;;;;;;6.22;1.63;;;;;;;;;;4983110;28;20038;-64
2022/07/10 11:34:50;;;;;;;8.02;1.80;;;;;;;;;;4982333;28;20050;-64
2022/07/10 11:37:16;;;;;;;8.00;1.67;;;;;;;;;;4980433;28;20054;-64
2022/07/10 11:39:43;;;;;;;10.65;2.15;;;;;;;;;;4980902;28;20586;-63
2022/07/10 11:42:09;;;;;;;6.55;1.60;;;;;;;;;;4980546;28;20536;-64
2022/07/10 11:44:36;;;;;;;11.63;2.22;;;;;;;;;;4963882;28;20038;-64
2022/07/10 11:47:03;;;;;;;6.78;1.50;;;;;;;;;;4980293;28;20050;-73
2022/07/10 11:49:29;;;;;;;9.93;1.48;;;;;;;;;;4968037;28;20049;-64
2022/07/10 11:52:01;;;;;;;8.35;1.77;;;;;;;;;;4979704;28;20107;-63
2022/07/10 11:54:27;;;;;;;8.02;1.75;;;;;;;;;;5043070;28;20038;-64
2022/07/10 11:56:54;;;;;;;5.93;1.58;;;;;;;;;;4981908;28;20042;-63
2022/07/10 11:59:25;;;;;;;6.85;1.60;;;;;;;;;;4985967;28;20047;-64
2022/07/10 12:01:53;;;;;;;6.63;1.63;;;;;;;;;;4983370;28;20046;-65
2022/07/10 12:04:23;;;;;;;5.80;1.73;;;;;;;;;;4979808;28;20052;-65
2022/07/10 12:06:51;;;;;;;8.43;1.80;;;;;;;;;;4981046;28;20050;-64
2022/07/10 12:09:19;;;;;;;11.05;1.50;;;;;;;;;;4979756;28;20054;-64
2022/07/10 12:11:58;;;;;;;5.85;1.42;;;;;;;;;;4983140;28;20044;-64
2022/07/10 12:14:24;;;;;;;6.40;1.70;;;;;;;;;;4978801;28;20049;-64
2022/07/10 12:16:51;;;;;;;5.88;1.27;;;;;;;;;;4964554;28;20464;-64
2022/07/10 12:19:19;;;;;;;5.78;1.75;;;;;;;;;;4979942;28;20111;-64
2022/07/10 12:21:46;;;;;;;6.28;1.30;;;;;;;;;;4981087;28;20058;-64
2022/07/10 12:24:14;;;;;;;4.63;1.27;;;;;;;;;;4981365;28;20230;-64
2022/07/10 12:26:41;;;;;;;6.07;1.30;;;;;;;;;;5043836;28;20099;-65
2022/07/10 12:29:11;;;;;;;10.60;1.63;;;;;;;;;;4981048;28;20049;-65
2022/07/10 12:31:38;;;;;;;7.07;2.42;;;;;;;;;;4981098;28;20058;-65
2022/07/10 12:34:05;;;;;;;7.10;1.50;;;;;;;;;;4965036;28;20182;-64
2022/07/10 12:36:44;;;;;;;4.82;1.50;;;;;;;;;;4983012;28;20522;-65
2022/07/10 12:39:10;;;;;;;6.20;1.70;;;;;;;;;;4983978;28;20053;-64
2022/07/10 12:41:54;;;;;;;8.90;1.73;;;;;;;;;;4963940;28;20188;-64
2022/07/10 12:44:31;;;;;;;6.30;1.58;;;;;;;;;;4983871;28;20047;-64
2022/07/10 12:47:08;;;;;;;4.75;1.40;;;;;;;;;;4982279;28;20046;-65
2022/07/10 12:49:48;;;;;;;15.00;2.20;;;;;;;;;;4983438;28;20088;-65
2022/07/10 12:52:22;;;;;;;5.75;1.75;;;;;;;;;;4981076;28;20505;-64
2022/07/10 12:54:49;;;;;;;6.20;1.45;;;;;;;;;;4979786;28;21520;-65
2022/07/10 12:57:15;;;;;;;6.85;1.58;;;;;;;;;;4984243;28;20564;-65
2022/07/10 12:59:43;;;;;;;5.05;1.15;;;;;;;;;;4983684;28;20078;-65
2022/07/10 13:02:19;;;;;;;5.60;1.30;;;;;;;;;;4980578;28;20520;-65
2022/07/10 13:04:53;;;;;;;6.78;1.50;;;;;;;;;;4981970;28;20121;-64
2022/07/10 13:07:21;;;;;;;9.95;1.50;;;;;;;;;;4981032;28;20455;-64
2022/07/10 13:09:50;;;;;;;3.25;0.98;;;;;;;;;;4981323;28;20081;-65
2022/07/10 13:12:16;;;;;;;5.68;1.20;;;;;;;;;;4983031;28;20118;-65
2022/07/10 13:14:43;;;;;;;3.40;1.25;;;;;;;;;;4963048;28;20129;-65
2022/07/10 13:17:09;;;;;;;6.03;1.33;;;;;;;;;;4983851;28;20459;-64
2022/07/10 13:19:35;;;;;;;4.63;1.30;;;;;;;;;;4981403;28;20080;-65
2022/07/10 13:22:01;;;;;;;6.50;1.58;;;;;;;;;;4963351;28;20046;-65
2022/07/10 13:24:27;;;;;;;5.75;1.27;;;;;;;;;;4984337;28;20098;-65
2022/07/10 13:26:56;;;;;;;4.70;1.15;;;;;;;;;;4981720;28;20054;-65
2022/07/10 13:29:23;;;;;;;5.07;1.13;;;;;;;;;;4984433;28;20049;-65
2022/07/10 13:31:49;;;;;;;5.75;1.25;;;;;;;;;;4982564;28;20113;-65
2022/07/10 13:34:15;;;;;;;5.47;1.60;;;;;;;;;;4986009;28;20039;-64
2022/07/10 13:36:42;;;;;;;3.85;1.17;;;;;;;;;;4982544;28;20175;-65
2022/07/10 13:39:09;;;;;;;4.28;1.00;;;;;;;;;;4992968;28;20054;-65
2022/07/10 13:41:35;;;;;;;6.18;1.27;;;;;;;;;;4980828;28;20109;-65
2022/07/10 13:44:01;;;;;;;5.40;1.30;;;;;;;;;;4981739;28;20039;-65
2022/07/10 13:46:28;;;;;;;5.95;1.75;;;;;;;;;;4986182;28;20050;-66
2022/07/10 13:48:54;;;;;;;4.43;1.40;;;;;;;;;;4987480;28;20054;-65
2022/07/10 13:51:20;;;;;;;6.47;1.95;;;;;;;;;;4982985;28;20087;-65
2022/07/10 13:53:47;;;;;;;6.10;1.35;;;;;;;;;;4982545;28;20050;-65
2022/07/10 13:56:14;;;;;;;9.43;1.48;;;;;;;;;;4967207;28;20142;-65
2022/07/10 13:58:40;;;;;;;7.72;1.38;;;;;;;;;;4982753;28;20236;-65
2022/07/10 14:01:06;;;;;;;5.90;1.55;;;;;;;;;;4983234;28;20096;-64
2022/07/10 14:03:32;;;;;;;7.75;1.58;;;;;;;;;;4986403;28;20035;-65
2022/07/10 14:05:59;;;;;;;8.40;1.52;;;;;;;;;;4965493;28;20055;-65
2022/07/10 14:08:25;;;;;;;12.00;1.75;;;;;;;;;;4981300;28;20157;-65
2022/07/10 14:10:52;;;;;;;5.63;1.27;;;;;;;;;;4980089;28;20582;-65
2022/07/10 14:13:18;;;;;;;4.45;1.30;;;;;;;;;;4982353;28;20035;-65
2022/07/10 14:15:44;;;;;;;5.45;1.38;;;;;;;;;;4984475;28;20129;-65
2022/07/10 14:18:11;;;;;;;12.27;1.90;;;;;;;;;;4962888;28;20105;-65
2022/07/10 14:23:22;;;;;;;8.73;1.67;;;;;;;;;;4981789;28;20066;-65
2022/07/10 14:25:48;;;;;;;9.93;1.50;;;;;;;;;;4989883;28;20364;-65
2022/07/10 14:28:15;;;;;;;5.97;1.50;;;;;;;;;;4985486;28;20046;-65
2022/07/10 14:30:41;;;;;;;4.25;1.30;;;;;;;;;;4983100;28;20086;-65
2022/07/10 14:33:07;;;;;;;7.38;2.08;;;;;;;;;;4983366;28;20174;-65
2022/07/10 14:35:33;;;;;;;7.18;1.42;;;;;;;;;;4981082;28;20461;-65
2022/07/10 14:37:59;;;;;;;7.43;2.13;;;;;;;;;;4982877;28;20394;-65
2022/07/10 14:40:26;;;;;;;8.30;1.65;;;;;;;;;;4982293;28;20154;-65
2022/07/10 14:42:52;;;;;;;4.85;1.30;;;;;;;;;;4984640;28;20055;-65
2022/07/10 14:45:18;;;;;;;5.47;1.60;;;;;;;;;;4965527;28;20038;-65
2022/07/10 14:47:44;;;;;;;6.78;1.50;;;;;;;;;;4976733;28;20053;-65
2022/07/10 14:50:10;;;;;;;5.47;1.27;;;;;;;;;;4961237;28;20133;-65